createdAt,value
2017-11-30T00:00:40.335Z,25.48
2017-11-30T00:03:08.684Z,26.48
2017-11-30T00:05:37.242Z,25.58
2017-11-30T00:08:06.338Z,26.95
2017-11-30T00:10:34.689Z,26.37
2017-11-30T00:13:03.046Z,25.00
2017-11-30T00:15:31.373Z,25.92
2017-11-30T00:17:59.712Z,26.62
2017-11-30T00:20:28.090Z,27.15
2017-11-30T00:22:56.456Z,26.55
2017-11-30T00:25:24.830Z,26.55
2017-11-30T00:27:54.042Z,27.45
2017-11-30T00:30:22.359Z,27.52
2017-11-30T00:32:50.697Z,26.23
2017-11-30T00:35:19.853Z,26.30
2017-11-30T00:37:48.214Z,26.70
2017-11-30T00:40:16.561Z,27.98
2017-11-30T00:43:02.936Z,25.75
2017-11-30T00:45:32.056Z,23.90
2017-11-30T00:48:01.132Z,25.23
2017-11-30T00:50:30.285Z,25.42
2017-11-30T00:52:58.588Z,25.08
2017-11-30T00:55:26.890Z,27.95
2017-11-30T00:57:56.002Z,26.40
2017-11-30T01:00:25.061Z,25.65
2017-11-30T01:02:53.397Z,26.60
2017-11-30T01:05:22.202Z,25.80
2017-11-30T01:07:50.518Z,25.02
2017-11-30T01:10:19.637Z,24.95
2017-11-30T01:12:48.034Z,24.10
2017-11-30T01:15:16.425Z,25.65
2017-11-30T01:17:44.754Z,25.55
2017-11-30T01:20:13.904Z,25.98
2017-11-30T01:22:42.218Z,24.55
2017-11-30T01:25:10.530Z,26.10
2017-11-30T01:27:38.985Z,25.83
2017-11-30T01:30:08.078Z,25.05
2017-11-30T01:32:37.193Z,26.08
2017-11-30T01:35:05.574Z,25.02
2017-11-30T01:37:33.912Z,25.02
2017-11-30T01:40:03.044Z,24.50
2017-11-30T01:42:32.179Z,23.70
2017-11-30T01:45:00.505Z,25.55
2017-11-30T01:47:29.590Z,23.62
2017-11-30T01:49:58.060Z,23.87
2017-11-30T01:52:26.388Z,25.85
2017-11-30T01:54:54.712Z,23.70
2017-11-30T01:57:23.061Z,23.52
2017-11-30T01:59:51.438Z,23.70
2017-11-30T02:02:19.774Z,24.52
2017-11-30T02:04:48.893Z,25.23
2017-11-30T02:07:17.227Z,26.35
2017-11-30T02:09:45.533Z,25.90
2017-11-30T02:12:15.177Z,26.00
2017-11-30T02:14:43.501Z,24.80
2017-11-30T02:17:11.834Z,25.90
2017-11-30T02:19:40.173Z,25.10
2017-11-30T02:22:09.264Z,25.02
2017-11-30T02:24:38.377Z,26.05
2017-11-30T02:27:06.749Z,25.33
2017-11-30T02:29:35.085Z,25.52
2017-11-30T02:32:03.406Z,25.67
2017-11-30T02:34:32.994Z,24.02
2017-11-30T02:37:01.305Z,25.60
2017-11-30T02:39:29.618Z,25.85
2017-11-30T02:41:57.986Z,26.42
2017-11-30T02:44:26.315Z,26.17
2017-11-30T02:46:54.646Z,25.27
2017-11-30T02:49:23.012Z,24.92
2017-11-30T02:51:51.355Z,25.92
2017-11-30T02:54:19.685Z,25.30
2017-11-30T02:56:48.351Z,24.83
2017-11-30T02:59:16.648Z,24.27
2017-11-30T03:01:45.005Z,26.45
2017-11-30T03:04:13.338Z,25.33
2017-11-30T03:06:41.650Z,24.10
2017-11-30T03:09:10.743Z,23.98
2017-11-30T03:11:39.115Z,25.62
2017-11-30T03:14:08.193Z,24.08
2017-11-30T03:16:37.278Z,23.15
2017-11-30T03:19:05.827Z,24.05
2017-11-30T03:21:34.152Z,25.75
2017-11-30T03:24:02.478Z,25.55
2017-11-30T03:26:30.946Z,24.98
2017-11-30T03:28:59.277Z,26.12
2017-11-30T03:31:27.579Z,23.62
2017-11-30T03:33:55.925Z,26.65
2017-11-30T03:36:24.268Z,25.52
2017-11-30T03:38:52.649Z,27.35
2017-11-30T03:41:21.334Z,25.62
2017-11-30T03:43:49.747Z,27.15
2017-11-30T03:46:18.088Z,25.65
2017-11-30T03:48:46.433Z,25.35
2017-11-30T03:51:14.746Z,24.33
2017-11-30T03:53:43.061Z,24.58
2017-11-30T03:56:11.398Z,25.75
2017-11-30T03:58:39.698Z,27.05
2017-11-30T04:01:08.015Z,26.20
2017-11-30T04:03:36.634Z,25.45
2017-11-30T04:06:05.701Z,25.50
2017-11-30T04:08:34.053Z,26.02
2017-11-30T04:11:02.406Z,23.90
2017-11-30T04:13:30.772Z,23.40
2017-11-30T04:15:59.078Z,24.92
2017-11-30T04:18:27.427Z,23.92
2017-11-30T04:20:55.770Z,25.35
2017-11-30T04:23:24.897Z,24.95
2017-11-30T04:25:53.509Z,23.65
2017-11-30T04:28:21.834Z,22.37
2017-11-30T04:30:50.961Z,23.50
2017-11-30T04:33:19.333Z,24.15
2017-11-30T04:35:47.681Z,23.48
2017-11-30T04:38:16.016Z,24.30
2017-11-30T04:40:44.366Z,24.23
2017-11-30T04:43:12.740Z,23.33
2017-11-30T04:45:41.877Z,24.12
2017-11-30T04:48:10.458Z,23.73
2017-11-30T04:50:38.802Z,23.35
2017-11-30T04:53:07.903Z,24.20
2017-11-30T04:55:36.245Z,22.35
2017-11-30T04:58:04.683Z,24.05
2017-11-30T05:00:33.030Z,24.42
2017-11-30T05:03:01.374Z,22.52
2017-11-30T05:05:30.462Z,24.65
2017-11-30T05:07:58.819Z,24.45
2017-11-30T05:10:27.299Z,26.67
2017-11-30T05:12:55.592Z,24.83
2017-11-30T05:15:23.953Z,27.30
2017-11-30T05:17:52.533Z,24.75
2017-11-30T05:20:20.872Z,25.10
2017-11-30T05:22:49.186Z,26.00
2017-11-30T05:25:17.628Z,26.67
2017-11-30T05:27:45.955Z,24.90
2017-11-30T05:30:14.281Z,27.30
2017-11-30T05:32:43.338Z,27.27
2017-11-30T05:35:11.659Z,27.15
2017-11-30T05:37:40.269Z,25.12
2017-11-30T05:40:09.403Z,24.83
2017-11-30T05:42:38.486Z,24.70
2017-11-30T05:45:06.885Z,24.05
2017-11-30T05:47:35.233Z,23.62
2017-11-30T05:50:03.550Z,24.35
2017-11-30T05:52:31.906Z,24.60
2017-11-30T05:55:00.429Z,24.52
2017-11-30T05:57:28.805Z,24.35
2017-11-30T05:59:57.134Z,23.70
2017-11-30T06:02:25.501Z,23.87
2017-11-30T06:04:53.830Z,24.37
2017-11-30T06:07:22.146Z,24.35
2017-11-30T06:09:51.282Z,22.83
2017-11-30T06:12:19.695Z,22.83
2017-11-30T06:14:48.031Z,22.17
2017-11-30T06:17:16.554Z,21.48
2017-11-30T06:19:44.920Z,24.33
2017-11-30T06:22:13.271Z,22.40
2017-11-30T06:24:41.646Z,23.40
2017-11-30T06:27:09.963Z,22.10
2017-11-30T06:29:38.299Z,22.00
2017-11-30T06:32:06.647Z,22.55
2017-11-30T06:34:35.750Z,23.87
2017-11-30T06:37:04.097Z,23.50
2017-11-30T06:39:32.777Z,24.70
2017-11-30T06:42:01.118Z,25.67
2017-11-30T06:44:29.429Z,22.62
2017-11-30T06:46:57.771Z,23.23
2017-11-30T06:49:26.086Z,24.63
2017-11-30T06:51:54.451Z,23.02
2017-11-30T06:54:22.826Z,22.58
2017-11-30T06:56:51.180Z,23.38
2017-11-30T06:59:19.510Z,25.20
2017-11-30T07:01:48.155Z,27.30
2017-11-30T07:04:16.502Z,27.25
2017-11-30T07:06:44.848Z,28.50
2017-11-30T07:09:13.182Z,27.45
2017-11-30T07:11:41.559Z,31.27
2017-11-30T07:14:09.874Z,30.95
2017-11-30T07:16:38.218Z,32.30
2017-11-30T07:19:06.552Z,33.03
2017-11-30T07:21:34.870Z,33.38
2017-11-30T07:24:03.698Z,33.30
2017-11-30T07:26:32.007Z,35.92
2017-11-30T07:29:00.356Z,34.75
2017-11-30T07:31:28.683Z,34.83
2017-11-30T07:33:57.771Z,38.53
2017-11-30T07:36:26.109Z,34.67
2017-11-30T07:38:54.524Z,37.67
2017-11-30T07:41:23.612Z,37.38
2017-11-30T07:43:51.965Z,37.92
2017-11-30T07:46:20.703Z,37.92
2017-11-30T07:48:49.069Z,35.30
2017-11-30T07:51:18.201Z,38.08
2017-11-30T07:53:46.548Z,37.30
2017-11-30T07:56:15.695Z,37.88
2017-11-30T07:58:44.050Z,38.35
2017-11-30T08:01:12.437Z,34.45
2017-11-30T08:03:40.784Z,34.97
2017-11-30T08:06:09.881Z,34.90
2017-11-30T08:08:39.338Z,33.17
2017-11-30T08:11:07.681Z,32.05
2017-11-30T08:13:36.010Z,32.65
2017-11-30T08:16:04.369Z,34.22
2017-11-30T08:18:32.710Z,32.92
2017-11-30T08:21:01.026Z,35.60
2017-11-30T08:23:29.380Z,34.10
2017-11-30T08:25:57.710Z,34.58
2017-11-30T08:28:26.065Z,35.95
2017-11-30T08:30:54.780Z,32.38
2017-11-30T08:33:23.911Z,35.00
2017-11-30T08:35:52.290Z,32.40
2017-11-30T08:38:20.671Z,32.10
2017-11-30T08:40:49.010Z,32.17
2017-11-30T08:43:17.324Z,33.47
2017-11-30T08:45:45.692Z,32.58
2017-11-30T08:48:14.006Z,30.02
2017-11-30T08:50:42.314Z,30.62
2017-11-30T08:53:11.072Z,27.95
2017-11-30T08:55:39.413Z,27.70
2017-11-30T08:58:08.561Z,25.80
2017-11-30T09:00:37.667Z,24.27
2017-11-30T09:03:06.017Z,24.80
2017-11-30T09:05:34.369Z,26.60
2017-11-30T09:08:03.492Z,24.55
2017-11-30T09:10:31.805Z,23.48
2017-11-30T09:13:00.186Z,22.90
2017-11-30T09:15:28.916Z,24.17
2017-11-30T09:17:57.221Z,23.42
2017-11-30T09:20:25.549Z,24.90
2017-11-30T09:22:54.674Z,23.55
2017-11-30T09:25:23.006Z,26.12
2017-11-30T09:27:51.308Z,23.27
2017-11-30T09:30:20.407Z,24.05
2017-11-30T09:32:48.734Z,23.50
2017-11-30T09:35:17.087Z,22.75
2017-11-30T09:37:45.507Z,23.05
2017-11-30T09:40:13.809Z,23.08
2017-11-30T09:42:42.927Z,21.58
2017-11-30T09:45:12.054Z,22.58
2017-11-30T09:47:40.406Z,22.35
2017-11-30T09:50:08.750Z,22.45
2017-11-30T09:52:37.881Z,20.65
2017-11-30T09:55:06.215Z,21.27
2017-11-30T09:57:34.523Z,21.25
2017-11-30T10:00:03.118Z,22.08
2017-11-30T10:02:32.203Z,20.50
2017-11-30T10:05:01.309Z,21.33
2017-11-30T10:07:29.678Z,21.37
2017-11-30T10:09:58.006Z,21.98
2017-11-30T10:12:26.337Z,24.50
2017-11-30T10:14:55.478Z,22.52
2017-11-30T10:17:23.893Z,24.55
2017-11-30T10:19:53.025Z,23.58
2017-11-30T10:22:21.804Z,23.60
2017-11-30T10:24:50.145Z,23.17
2017-11-30T10:27:18.492Z,22.10
2017-11-30T10:29:46.873Z,21.83
2017-11-30T10:32:15.205Z,22.50
2017-11-30T10:34:44.316Z,23.85
2017-11-30T10:37:12.684Z,22.65
2017-11-30T10:39:40.992Z,24.08
2017-11-30T10:42:09.308Z,21.67
2017-11-30T10:44:37.713Z,23.27
2017-11-30T10:47:06.090Z,21.42
2017-11-30T10:49:34.411Z,22.83
2017-11-30T10:52:02.773Z,22.45
2017-11-30T10:54:31.099Z,22.85
2017-11-30T10:56:59.445Z,24.92
2017-11-30T10:59:27.783Z,25.98
2017-11-30T11:01:56.109Z,24.73
2017-11-30T11:04:24.591Z,22.60
2017-11-30T11:06:53.095Z,23.25
2017-11-30T11:09:21.392Z,23.42
2017-11-30T11:11:49.726Z,20.92
2017-11-30T11:14:18.095Z,21.90
2017-11-30T11:16:46.433Z,22.40
2017-11-30T11:19:14.776Z,20.90
2017-11-30T11:21:43.158Z,22.62
2017-11-30T11:24:11.509Z,23.98
2017-11-30T11:26:39.822Z,22.92
2017-11-30T11:29:08.482Z,23.75
2017-11-30T11:31:36.813Z,22.42
2017-11-30T11:34:05.161Z,21.98
2017-11-30T11:36:33.532Z,22.27
2017-11-30T11:39:01.865Z,20.55
2017-11-30T11:41:30.988Z,19.98
2017-11-30T11:44:00.102Z,20.60
2017-11-30T11:46:28.470Z,20.83
2017-11-30T11:48:56.829Z,21.75
2017-11-30T11:51:25.552Z,20.42
2017-11-30T11:53:53.872Z,20.73
2017-11-30T11:56:22.963Z,20.75
2017-11-30T11:58:51.363Z,22.30
2017-11-30T12:01:19.895Z,21.77
2017-11-30T12:03:48.227Z,20.27
2017-11-30T12:06:17.361Z,21.60
2017-11-30T12:08:45.703Z,19.48
2017-11-30T12:11:14.801Z,22.40
2017-11-30T12:13:43.488Z,21.30
2017-11-30T12:16:11.913Z,23.55
2017-11-30T12:18:40.252Z,22.20
2017-11-30T12:21:09.377Z,24.17
2017-11-30T12:23:37.714Z,24.55
2017-11-30T12:26:06.821Z,22.55
2017-11-30T12:28:35.953Z,21.52
2017-11-30T12:31:04.293Z,22.77
2017-11-30T12:33:33.420Z,20.58
2017-11-30T12:36:01.941Z,20.80
2017-11-30T12:38:31.031Z,20.95
2017-11-30T12:41:00.162Z,21.90
2017-11-30T12:43:29.306Z,22.73
2017-11-30T12:45:57.621Z,24.20
2017-11-30T12:48:26.735Z,23.52
2017-11-30T12:50:55.898Z,23.25
2017-11-30T12:53:24.275Z,22.85
2017-11-30T12:55:52.620Z,22.58
2017-11-30T12:58:21.031Z,22.65
2017-11-30T13:00:49.378Z,24.23
2017-11-30T13:03:17.718Z,23.40
2017-11-30T13:05:46.865Z,24.40
2017-11-30T13:08:15.179Z,22.45
2017-11-30T13:10:43.505Z,24.08
2017-11-30T13:13:11.861Z,22.95
2017-11-30T13:15:40.980Z,24.90
2017-11-30T13:18:09.303Z,21.08
2017-11-30T13:20:37.743Z,20.37
2017-11-30T13:23:06.136Z,21.10
2017-11-30T13:25:34.476Z,21.05
2017-11-30T13:28:02.829Z,20.45
2017-11-30T13:30:31.162Z,22.40
2017-11-30T13:32:59.479Z,22.90
2017-11-30T13:35:27.822Z,23.62
2017-11-30T13:37:56.164Z,25.50
2017-11-30T13:40:26.315Z,25.40
2017-11-30T13:42:54.748Z,26.60
2017-11-30T13:45:23.177Z,25.30
2017-11-30T13:47:51.502Z,26.08
2017-11-30T13:50:19.931Z,25.80
2017-11-30T13:52:48.326Z,24.02
2017-11-30T13:55:16.703Z,25.65
2017-11-30T13:57:45.079Z,23.30
2017-11-30T14:00:13.394Z,23.12
2017-11-30T14:02:41.687Z,23.10
2017-11-30T14:05:10.893Z,23.95
2017-11-30T14:07:39.987Z,23.95
2017-11-30T14:10:08.335Z,24.98
2017-11-30T14:12:36.664Z,24.60
2017-11-30T14:15:04.996Z,21.48
2017-11-30T14:17:33.335Z,25.58
2017-11-30T14:20:01.663Z,24.45
2017-11-30T14:22:29.985Z,22.92
2017-11-30T14:24:58.301Z,24.52
2017-11-30T14:27:27.581Z,24.83
2017-11-30T14:29:55.910Z,27.13
2017-11-30T14:32:24.997Z,24.77
2017-11-30T14:34:53.344Z,25.65
2017-11-30T14:37:21.688Z,26.33
2017-11-30T14:39:50.051Z,24.60
2017-11-30T14:42:18.413Z,25.75
2017-11-30T14:44:47.505Z,25.90
2017-11-30T14:47:16.052Z,24.80
2017-11-30T14:49:45.028Z,25.42
2017-11-30T14:52:13.348Z,24.67
2017-11-30T14:54:41.673Z,25.40
2017-11-30T14:57:10.104Z,26.50
2017-11-30T14:59:38.431Z,25.92
2017-11-30T15:02:06.890Z,25.50
2017-11-30T15:04:35.982Z,26.08
2017-11-30T15:07:05.056Z,25.35
2017-11-30T15:09:33.408Z,27.50
2017-11-30T15:12:01.956Z,24.80
2017-11-30T15:14:30.295Z,24.73
2017-11-30T15:16:58.667Z,25.62
2017-11-30T15:19:27.025Z,26.95
2017-11-30T15:21:55.346Z,26.55
2017-11-30T15:24:23.661Z,27.42
2017-11-30T15:26:52.939Z,25.80
2017-11-30T15:29:22.045Z,24.27
2017-11-30T15:31:50.370Z,27.17
2017-11-30T15:34:18.810Z,25.05
2017-11-30T15:36:47.134Z,25.02
2017-11-30T15:39:15.475Z,25.33
2017-11-30T15:41:43.796Z,26.85
2017-11-30T15:44:12.124Z,26.20
2017-11-30T15:46:40.466Z,27.85
2017-11-30T15:49:08.789Z,25.52
2017-11-30T15:51:37.134Z,26.08
2017-11-30T15:54:05.571Z,28.05
2017-11-30T15:56:33.950Z,27.90
2017-11-30T15:59:02.362Z,27.70
2017-11-30T16:01:31.491Z,27.20
2017-11-30T16:03:59.866Z,27.00
2017-11-30T16:06:28.199Z,27.30
2017-11-30T16:08:56.520Z,29.63
2017-11-30T16:11:24.946Z,27.45
2017-11-30T16:13:53.242Z,29.33
2017-11-30T16:16:21.606Z,28.67
2017-11-30T16:18:50.072Z,28.23
2017-11-30T16:21:18.524Z,28.25
2017-11-30T16:23:46.832Z,27.52
2017-11-30T16:26:15.175Z,28.75
2017-11-30T16:28:43.485Z,29.33
2017-11-30T16:31:11.851Z,27.15
2017-11-30T16:33:40.212Z,28.80
2017-11-30T16:36:09.299Z,28.45
2017-11-30T16:38:37.620Z,27.00
2017-11-30T16:41:06.025Z,26.45
2017-11-30T16:43:34.349Z,28.87
2017-11-30T16:46:02.667Z,29.20
2017-11-30T16:48:31.070Z,28.30
2017-11-30T16:50:59.424Z,28.67
2017-11-30T16:53:27.709Z,28.17
2017-11-30T16:55:56.061Z,27.98
2017-11-30T16:58:24.440Z,26.05
2017-11-30T17:00:52.747Z,26.27
2017-11-30T17:03:21.950Z,26.65
2017-11-30T17:05:50.324Z,25.62
2017-11-30T17:08:18.668Z,26.65
2017-11-30T17:10:47.059Z,25.65
2017-11-30T17:13:15.395Z,23.75
2017-11-30T17:15:44.488Z,25.25
2017-11-30T17:18:12.938Z,26.48
2017-11-30T17:20:41.277Z,24.45
2017-11-30T17:23:09.573Z,25.83
2017-11-30T17:25:38.547Z,26.87
2017-11-30T17:28:06.888Z,26.70
2017-11-30T17:30:35.339Z,27.02
2017-11-30T17:33:03.799Z,38.47
2017-11-30T17:35:32.145Z,28.50
2017-11-30T17:38:01.258Z,29.95
2017-11-30T17:40:29.634Z,28.45
2017-11-30T17:42:57.954Z,27.90
2017-11-30T17:45:26.281Z,30.25
2017-11-30T17:47:54.928Z,30.80
2017-11-30T17:50:24.032Z,32.45
2017-11-30T17:52:52.348Z,33.72
2017-11-30T17:55:20.730Z,33.15
2017-11-30T17:57:49.047Z,34.33
2017-11-30T18:00:17.493Z,32.70
2017-11-30T18:02:46.174Z,33.45
2017-11-30T18:05:14.508Z,34.80
2017-11-30T18:07:42.873Z,34.30
2017-11-30T18:10:11.614Z,32.97
2017-11-30T18:12:40.025Z,34.38
2017-11-30T18:15:08.389Z,34.28
2017-11-30T18:17:36.751Z,34.17
2017-11-30T18:20:05.848Z,33.30
2017-11-30T18:22:34.203Z,32.38
2017-11-30T18:25:02.680Z,33.72
2017-11-30T18:27:31.758Z,32.55
2017-11-30T18:30:00.070Z,35.67
2017-11-30T18:32:29.520Z,36.03
2017-11-30T18:34:57.873Z,34.53
2017-11-30T18:37:26.201Z,32.17
2017-11-30T18:39:54.861Z,34.08
2017-11-30T18:42:23.191Z,30.17
2017-11-30T18:44:52.449Z,32.67
2017-11-30T18:47:21.288Z,30.77
2017-11-30T18:49:49.632Z,33.10
2017-11-30T18:52:18.010Z,32.67
2017-11-30T18:54:46.420Z,32.13
2017-11-30T18:57:15.527Z,33.28
2017-11-30T18:59:44.789Z,34.05
2017-11-30T19:02:14.125Z,32.67
2017-11-30T19:04:43.228Z,32.10
2017-11-30T19:07:12.308Z,30.00
2017-11-30T19:09:40.700Z,31.25
2017-11-30T19:12:09.823Z,32.25
2017-11-30T19:14:38.160Z,30.45
2017-11-30T19:17:06.709Z,30.80
2017-11-30T19:19:35.041Z,31.75
2017-11-30T19:22:03.407Z,31.90
2017-11-30T19:24:32.530Z,33.08
2017-11-30T19:27:00.841Z,32.10
2017-11-30T19:29:29.197Z,32.17
2017-11-30T19:31:57.545Z,31.95
2017-11-30T19:34:26.629Z,33.05
2017-11-30T19:36:55.727Z,29.37
2017-11-30T19:39:24.920Z,30.80
2017-11-30T19:41:54.848Z,31.35
2017-11-30T19:44:23.167Z,32.28
2017-11-30T19:46:51.556Z,31.27
2017-11-30T19:49:19.905Z,30.90
2017-11-30T19:51:49.118Z,31.45
2017-11-30T19:54:18.184Z,30.17
2017-11-30T19:56:47.292Z,31.65
2017-11-30T19:59:16.416Z,29.67
2017-11-30T20:01:45.156Z,30.92
2017-11-30T20:04:13.476Z,31.20
2017-11-30T20:06:41.828Z,29.65
2017-11-30T20:09:10.247Z,29.05
2017-11-30T20:11:38.578Z,29.52
2017-11-30T20:14:07.666Z,31.58
2017-11-30T20:16:36.873Z,28.45
2017-11-30T20:19:05.185Z,30.30
2017-11-30T20:21:33.537Z,29.90
2017-11-30T20:24:02.111Z,30.48
2017-11-30T20:26:30.460Z,31.45
2017-11-30T20:28:58.822Z,28.55
2017-11-30T20:31:27.152Z,28.20
2017-11-30T20:33:55.497Z,29.20
2017-11-30T20:36:23.838Z,30.30
2017-11-30T20:38:52.185Z,30.45
2017-11-30T20:41:20.589Z,30.10
2017-11-30T20:43:48.973Z,29.30
2017-11-30T20:46:17.393Z,27.15
2017-11-30T20:48:45.736Z,29.50
2017-11-30T20:51:14.077Z,28.87
2017-11-30T20:53:43.193Z,30.30
2017-11-30T20:56:11.580Z,30.77
2017-11-30T20:58:39.939Z,27.62
2017-11-30T21:01:08.373Z,30.80
2017-11-30T21:03:36.724Z,30.55
2017-11-30T21:06:05.071Z,30.50
2017-11-30T21:08:33.768Z,31.77
2017-11-30T21:11:02.124Z,29.55
2017-11-30T21:13:31.194Z,29.90
2017-11-30T21:15:59.558Z,28.02
2017-11-30T21:18:27.884Z,31.58
2017-11-30T21:20:56.224Z,30.15
2017-11-30T21:23:24.590Z,28.35
2017-11-30T21:25:52.945Z,28.55
2017-11-30T21:28:21.332Z,29.48
2017-11-30T21:30:50.130Z,28.80
2017-11-30T21:33:18.487Z,29.83
2017-11-30T21:35:46.903Z,29.95
2017-11-30T21:38:15.282Z,29.35
2017-11-30T21:40:43.657Z,29.15
2017-11-30T21:43:11.995Z,27.90
2017-11-30T21:45:41.099Z,28.60
2017-11-30T21:48:09.430Z,28.60
2017-11-30T21:50:37.779Z,28.90
2017-11-30T21:53:06.806Z,28.90
2017-11-30T21:55:35.154Z,27.02
2017-11-30T21:58:03.501Z,26.92
2017-11-30T22:00:31.947Z,27.92
2017-11-30T22:03:01.164Z,28.33
2017-11-30T22:05:29.550Z,28.23
2017-11-30T22:07:57.989Z,29.75
2017-11-30T22:10:26.362Z,29.25
2017-11-30T22:12:54.710Z,30.00
2017-11-30T22:15:23.150Z,31.20
2017-11-30T22:17:51.512Z,30.25
2017-11-30T22:20:19.830Z,28.33
2017-11-30T22:22:48.940Z,31.27
2017-11-30T22:25:17.309Z,31.62
2017-11-30T22:27:45.658Z,31.40
2017-11-30T22:30:14.158Z,29.17
2017-11-30T22:32:43.273Z,30.65
2017-11-30T22:35:11.616Z,31.95
2017-11-30T22:37:40.015Z,30.70
2017-11-30T22:40:09.102Z,30.27
2017-11-30T22:42:38.323Z,28.67
2017-11-30T22:45:06.686Z,30.62
2017-11-30T22:47:35.844Z,29.02
2017-11-30T22:50:04.141Z,29.55
2017-11-30T22:52:32.496Z,29.33
2017-11-30T22:55:00.847Z,29.77
2017-11-30T22:57:29.256Z,30.73
2017-11-30T22:59:57.790Z,29.40
2017-11-30T23:02:26.914Z,28.27
2017-11-30T23:04:55.240Z,28.52
2017-11-30T23:07:23.598Z,28.33
2017-11-30T23:09:51.953Z,28.55
2017-11-30T23:12:20.361Z,28.95
2017-11-30T23:14:48.733Z,29.10
2017-11-30T23:17:17.067Z,28.87
2017-11-30T23:19:45.403Z,29.90
2017-11-30T23:22:14.140Z,30.30
2017-11-30T23:24:42.473Z,30.20
2017-11-30T23:27:10.851Z,30.12
2017-11-30T23:29:39.174Z,30.62
2017-11-30T23:32:08.249Z,31.70
2017-11-30T23:34:37.332Z,32.97
2017-11-30T23:37:05.702Z,31.42
2017-11-30T23:39:34.025Z,32.17
2017-11-30T23:42:02.385Z,31.48
2017-11-30T23:44:30.921Z,31.62
2017-11-30T23:46:59.264Z,32.30
2017-11-30T23:49:27.592Z,31.17
2017-11-30T23:51:56.741Z,32.47
2017-11-30T23:54:25.844Z,32.15
2017-11-30T23:56:54.192Z,29.42
2017-11-30T23:59:22.558Z,30.52
